createdAt,value
2024-02-22T00:01:09.834Z,15.38
2024-02-22T00:03:38.223Z,14.82
2024-02-22T00:06:07.062Z,14.15
2024-02-22T00:08:35.431Z,13.85
2024-02-22T00:11:04.429Z,11.23
2024-02-22T00:13:32.958Z,11.73
2024-02-22T00:16:05.167Z,11.15
2024-02-22T00:18:34.328Z,10.23
2024-02-22T00:21:02.867Z,7.10
2024-02-22T00:23:30.981Z,7.53
2024-02-22T00:25:59.252Z,7.47
2024-02-22T00:28:27.450Z,6.43
2024-02-22T00:30:55.587Z,7.90
2024-02-22T00:33:25.220Z,8.10
2024-02-22T00:35:53.332Z,5.37
2024-02-22T00:38:21.526Z,4.40
2024-02-22T00:40:50.504Z,4.57
2024-02-22T00:43:18.604Z,4.15
2024-02-22T00:45:46.730Z,2.63
2024-02-22T00:48:15.017Z,3.38
2024-02-22T00:50:44.764Z,3.50
2024-02-22T00:53:13.126Z,3.83
2024-02-22T00:55:41.423Z,4.65
2024-02-22T00:58:10.108Z,6.03
2024-02-22T01:00:38.501Z,5.68
2024-02-22T01:03:07.375Z,5.53
2024-02-22T01:05:35.806Z,4.90
2024-02-22T01:08:06.609Z,3.60
2024-02-22T01:10:35.261Z,5.13
2024-02-22T01:13:03.422Z,5.50
2024-02-22T01:15:33.760Z,6.63
2024-02-22T01:18:03.615Z,7.83
2024-02-22T01:20:33.147Z,9.37
2024-02-22T01:23:02.051Z,6.90
2024-02-22T01:25:31.661Z,8.77
2024-02-22T01:27:59.756Z,6.13
2024-02-22T01:30:30.029Z,5.95
2024-02-22T01:32:58.254Z,6.97
2024-02-22T01:35:27.673Z,6.87
2024-02-22T01:37:56.120Z,6.70
2024-02-22T01:40:25.759Z,5.97
2024-02-22T01:42:56.653Z,3.53
2024-02-22T01:45:24.860Z,3.90
2024-02-22T01:47:53.483Z,3.00
2024-02-22T01:50:22.622Z,4.03
2024-02-22T01:52:50.805Z,4.77
2024-02-22T01:55:21.841Z,4.10
2024-02-22T01:57:53.332Z,5.30
2024-02-22T02:00:24.811Z,3.63
2024-02-22T02:02:53.058Z,5.33
2024-02-22T02:05:21.320Z,4.50
2024-02-22T02:07:49.821Z,4.93
2024-02-22T02:10:18.184Z,4.40
2024-02-22T02:12:46.319Z,6.13
2024-02-22T02:15:14.663Z,6.20
2024-02-22T02:17:44.912Z,6.07
2024-02-22T02:20:15.727Z,5.70
2024-02-22T02:23:00.407Z,6.90
2024-02-22T02:25:32.034Z,7.00
2024-02-22T02:28:00.207Z,6.13
2024-02-22T02:30:28.507Z,5.53
2024-02-22T02:32:56.839Z,4.77
2024-02-22T02:35:25.072Z,6.30
2024-02-22T02:37:53.320Z,4.43
2024-02-22T02:40:21.431Z,3.60
2024-02-22T02:42:50.957Z,5.13
2024-02-22T02:45:19.030Z,2.50
2024-02-22T02:47:47.163Z,3.70
2024-02-22T02:50:15.536Z,2.60
2024-02-22T02:52:43.718Z,3.03
2024-02-22T02:55:13.898Z,2.60
2024-02-22T02:57:42.293Z,2.93
2024-02-22T03:00:15.245Z,2.47
2024-02-22T03:02:43.446Z,2.10
2024-02-22T03:05:12.476Z,2.20
2024-02-22T03:07:40.861Z,3.13
2024-02-22T03:10:09.945Z,3.10
2024-02-22T03:12:38.511Z,5.53
2024-02-22T03:15:08.869Z,4.37
2024-02-22T03:17:38.460Z,6.90
2024-02-22T03:20:12.414Z,6.17
2024-02-22T03:22:41.102Z,6.50
2024-02-22T03:25:11.474Z,10.20
2024-02-22T03:27:39.561Z,8.07
2024-02-22T03:30:10.405Z,7.90
2024-02-22T03:32:40.009Z,7.97
2024-02-22T03:35:11.273Z,7.50
2024-02-22T03:37:39.767Z,6.47
2024-02-22T03:40:10.103Z,7.57
2024-02-22T03:42:38.325Z,7.63
2024-02-22T03:45:07.719Z,5.67
2024-02-22T03:47:36.012Z,6.30
2024-02-22T03:50:06.410Z,6.73
2024-02-22T03:52:35.308Z,6.10
2024-02-22T03:55:03.774Z,7.37
2024-02-22T03:57:31.952Z,6.73
2024-02-22T04:00:00.366Z,7.30
2024-02-22T04:02:28.669Z,6.97
2024-02-22T04:04:56.813Z,6.90
2024-02-22T04:07:26.508Z,10.77
2024-02-22T04:09:54.899Z,6.83
2024-02-22T04:12:23.177Z,6.93
2024-02-22T04:14:51.554Z,7.40
2024-02-22T04:17:20.257Z,7.50
2024-02-22T04:19:48.498Z,6.83
2024-02-22T04:22:16.607Z,7.00
2024-02-22T04:24:46.102Z,7.20
2024-02-22T04:27:14.260Z,7.87
2024-02-22T04:29:43.786Z,7.27
2024-02-22T04:32:12.193Z,7.40
2024-02-22T04:34:40.424Z,6.17
2024-02-22T04:37:08.564Z,8.07
2024-02-22T04:39:36.841Z,5.90
2024-02-22T04:42:07.153Z,8.30
2024-02-22T04:44:35.852Z,8.47
2024-02-22T04:47:04.717Z,6.53
2024-02-22T04:49:32.901Z,11.03
2024-02-22T04:52:04.314Z,9.67
2024-02-22T04:54:39.385Z,9.93
2024-02-22T04:57:12.704Z,9.00
2024-02-22T04:59:41.040Z,8.83
2024-02-22T05:02:10.488Z,10.77
2024-02-22T05:04:38.675Z,7.43
2024-02-22T05:07:07.199Z,8.13
2024-02-22T05:09:35.335Z,7.67
2024-02-22T05:12:03.575Z,10.03
2024-02-22T05:14:33.099Z,11.60
2024-02-22T05:17:01.418Z,10.00
2024-02-22T05:19:29.553Z,7.90
2024-02-22T05:21:57.784Z,8.33
2024-02-22T05:24:26.409Z,8.40
2024-02-22T05:26:54.490Z,8.40
2024-02-22T05:29:22.688Z,6.97
2024-02-22T05:31:53.702Z,8.50
2024-02-22T05:34:22.135Z,8.60
2024-02-22T05:36:50.264Z,7.87
2024-02-22T05:39:18.421Z,9.40
2024-02-22T05:41:47.113Z,9.10
2024-02-22T05:44:15.808Z,12.27
2024-02-22T05:46:44.033Z,9.10
2024-02-22T05:49:13.610Z,10.40
2024-02-22T05:51:41.871Z,9.07
2024-02-22T05:54:10.391Z,9.30
2024-02-22T05:56:38.672Z,9.33
2024-02-22T05:59:07.417Z,9.88
2024-02-22T06:01:35.884Z,9.90
2024-02-22T06:04:05.427Z,10.17
2024-02-22T06:06:34.996Z,12.10
2024-02-22T06:09:03.700Z,10.27
2024-02-22T06:11:31.874Z,10.67
2024-02-22T06:14:00.008Z,10.93
2024-02-22T06:16:28.189Z,10.67
2024-02-22T06:18:56.452Z,10.60
2024-02-22T06:21:24.613Z,11.67
2024-02-22T06:23:55.582Z,10.90
2024-02-22T06:26:23.892Z,11.30
2024-02-22T06:28:54.919Z,10.33
2024-02-22T06:31:24.496Z,10.50
2024-02-22T06:33:54.102Z,10.73
2024-02-22T06:36:22.317Z,10.63
2024-02-22T06:38:50.613Z,10.00
2024-02-22T06:41:20.477Z,9.73
2024-02-22T06:43:48.660Z,10.40
2024-02-22T06:46:17.612Z,8.20
2024-02-22T06:48:46.775Z,11.13
2024-02-22T06:51:14.985Z,9.83
2024-02-22T06:53:43.102Z,10.33
2024-02-22T06:56:11.284Z,10.07
2024-02-22T06:58:40.880Z,10.82
2024-02-22T07:01:09.297Z,9.70
2024-02-22T07:03:37.443Z,8.47
2024-02-22T07:06:06.413Z,8.00
2024-02-22T07:08:35.003Z,9.37
2024-02-22T07:11:06.142Z,10.33
2024-02-22T07:13:35.013Z,10.03
2024-02-22T07:16:04.890Z,8.17
2024-02-22T07:18:33.069Z,9.47
2024-02-22T07:21:01.950Z,8.33
2024-02-22T07:23:30.071Z,9.00
2024-02-22T07:25:58.331Z,8.93
2024-02-22T07:28:26.451Z,8.95
2024-02-22T07:30:54.796Z,8.25
2024-02-22T07:33:24.681Z,8.73
2024-02-22T07:35:52.861Z,7.80
2024-02-22T07:38:21.091Z,6.95
2024-02-22T07:40:49.187Z,8.00
2024-02-22T07:43:17.271Z,9.07
2024-02-22T07:45:45.359Z,7.82
2024-02-22T07:48:13.903Z,7.43
2024-02-22T07:50:43.604Z,6.55
2024-02-22T07:53:11.688Z,6.97
2024-02-22T07:55:40.291Z,5.22
2024-02-22T07:58:10.192Z,6.75
2024-02-22T08:00:38.667Z,5.22
2024-02-22T08:03:07.135Z,4.93
2024-02-22T08:05:35.261Z,4.07
2024-02-22T08:08:05.033Z,4.85
2024-02-22T08:10:33.244Z,4.50
2024-02-22T08:13:01.381Z,3.83
2024-02-22T08:15:29.634Z,3.58
2024-02-22T08:17:57.808Z,4.22
2024-02-22T08:20:26.126Z,4.13
2024-02-22T08:22:54.306Z,4.20
2024-02-22T08:25:25.398Z,4.65
2024-02-22T08:28:06.125Z,4.57
2024-02-22T08:30:35.466Z,3.83
2024-02-22T08:33:03.832Z,3.40
2024-02-22T08:35:32.232Z,4.97
2024-02-22T08:38:00.792Z,4.35
2024-02-22T08:40:38.541Z,4.30
2024-02-22T08:43:08.400Z,4.18
2024-02-22T08:45:36.774Z,4.07
2024-02-22T08:48:05.566Z,4.97
2024-02-22T08:50:34.046Z,6.90
2024-02-22T08:53:02.296Z,3.75
2024-02-22T08:55:31.838Z,3.50
2024-02-22T08:58:01.828Z,4.07
2024-02-22T09:00:30.561Z,3.92
2024-02-22T09:02:58.737Z,4.65
2024-02-22T09:05:28.413Z,6.10
2024-02-22T09:07:57.210Z,6.57
2024-02-22T09:10:25.586Z,7.85
2024-02-22T09:12:55.101Z,4.70
2024-02-22T09:15:24.106Z,7.72
2024-02-22T09:17:52.226Z,5.10
2024-02-22T09:20:21.182Z,7.07
2024-02-22T09:22:50.319Z,8.80
2024-02-22T09:25:18.959Z,7.65
2024-02-22T09:27:47.160Z,6.13
2024-02-22T09:30:17.089Z,7.72
2024-02-22T09:32:45.306Z,9.20
2024-02-22T09:35:13.616Z,8.27
2024-02-22T09:37:43.766Z,10.95
2024-02-22T09:40:13.869Z,8.77
2024-02-22T09:42:42.603Z,10.93
2024-02-22T09:45:11.795Z,9.55
2024-02-22T09:47:41.476Z,9.90
2024-02-22T09:50:12.012Z,9.40
2024-02-22T09:52:40.494Z,8.70
2024-02-22T09:55:11.749Z,8.80
2024-02-22T09:57:40.208Z,8.55
2024-02-22T10:00:09.390Z,9.50
2024-02-22T10:02:38.719Z,8.07
2024-02-22T10:05:09.977Z,9.38
2024-02-22T10:07:39.142Z,12.02
2024-02-22T10:10:08.397Z,13.23
2024-02-22T10:12:38.175Z,12.30
2024-02-22T10:15:10.570Z,11.77
2024-02-22T10:17:39.988Z,10.60
2024-02-22T10:20:11.690Z,13.10
2024-02-22T10:22:40.714Z,12.52
2024-02-22T10:25:10.409Z,13.23
2024-02-22T10:27:40.583Z,17.00
2024-02-22T10:30:13.112Z,18.50
2024-02-22T10:32:42.263Z,16.95
2024-02-22T10:35:14.462Z,13.52
2024-02-22T10:37:43.603Z,17.98
2024-02-22T10:40:13.227Z,16.27
2024-02-22T10:42:41.957Z,17.65
2024-02-22T10:45:10.442Z,16.25
2024-02-22T10:47:39.486Z,14.27
2024-02-22T10:50:09.103Z,14.57
2024-02-22T10:52:42.764Z,15.63
2024-02-22T10:55:15.575Z,13.70
2024-02-22T10:57:46.554Z,12.35
2024-02-22T11:00:16.697Z,17.30
2024-02-22T11:02:46.982Z,12.98
2024-02-22T11:05:16.297Z,11.73
2024-02-22T11:07:46.588Z,10.20
2024-02-22T11:10:15.285Z,12.20
2024-02-22T11:12:45.704Z,14.35
2024-02-22T11:15:15.625Z,17.83
2024-02-22T11:17:54.214Z,18.23
2024-02-22T11:20:32.777Z,13.55
2024-02-22T11:23:13.751Z,11.32
2024-02-22T11:25:42.033Z,12.95
2024-02-22T11:28:11.221Z,15.00
2024-02-22T11:30:41.445Z,10.77
2024-02-22T11:33:11.965Z,17.08
2024-02-22T11:35:41.289Z,13.25
2024-02-22T11:38:10.977Z,13.02
2024-02-22T11:40:39.915Z,17.52
2024-02-22T11:43:08.231Z,7.47
2024-02-22T11:45:37.389Z,11.18
2024-02-22T11:48:07.049Z,15.40
2024-02-22T11:50:35.421Z,13.95
2024-02-22T11:53:04.773Z,12.48
2024-02-22T11:55:36.168Z,13.48
2024-02-22T11:58:04.497Z,11.23
2024-02-22T12:00:33.206Z,10.23
2024-02-22T12:03:01.705Z,14.10
2024-02-22T12:05:30.298Z,16.27
2024-02-22T12:07:59.361Z,11.35
2024-02-22T12:10:27.504Z,11.35
2024-02-22T12:12:57.369Z,16.40
2024-02-22T12:15:27.976Z,11.80
2024-02-22T12:17:56.714Z,15.25
2024-02-22T12:20:25.380Z,12.60
2024-02-22T12:22:54.912Z,16.90
2024-02-22T12:25:23.187Z,14.35
2024-02-22T12:27:54.430Z,14.10
2024-02-22T12:30:26.499Z,10.77
2024-02-22T12:32:55.463Z,15.77
2024-02-22T12:35:24.103Z,17.90
2024-02-22T12:37:52.454Z,17.02
2024-02-22T12:40:20.634Z,20.48
2024-02-22T12:42:56.188Z,17.98
2024-02-22T12:45:25.846Z,17.40
2024-02-22T12:47:54.039Z,17.23
2024-02-22T12:50:22.734Z,16.65
2024-02-22T12:52:50.996Z,16.50
2024-02-22T12:55:19.266Z,18.63
2024-02-22T12:57:47.420Z,13.40
2024-02-22T13:00:16.112Z,18.67
2024-02-22T13:02:45.961Z,16.27
2024-02-22T13:05:14.067Z,13.57
2024-02-22T13:07:42.212Z,18.88
2024-02-22T13:10:11.172Z,15.27
2024-02-22T13:12:39.324Z,14.38
2024-02-22T13:15:08.578Z,17.90
2024-02-22T13:17:38.303Z,18.98
2024-02-22T13:20:13.617Z,16.50
2024-02-22T13:22:41.976Z,17.17
2024-02-22T13:25:11.480Z,15.55
2024-02-22T13:27:39.586Z,16.48
2024-02-22T13:30:11.308Z,16.67
2024-02-22T13:32:40.434Z,16.80
2024-02-22T13:35:10.895Z,12.20
2024-02-22T13:37:39.407Z,16.00
2024-02-22T13:40:15.151Z,10.88
2024-02-22T13:42:44.092Z,13.32
2024-02-22T13:45:12.463Z,16.23
2024-02-22T13:47:40.671Z,11.75
2024-02-22T13:50:11.519Z,10.70
2024-02-22T13:52:41.045Z,13.30
2024-02-22T13:55:12.019Z,13.05
2024-02-22T13:57:41.102Z,9.30
2024-02-22T14:00:10.180Z,14.68
2024-02-22T14:02:39.653Z,9.70
2024-02-22T14:05:08.277Z,10.77
2024-02-22T14:07:38.619Z,10.95
2024-02-22T14:10:08.474Z,10.27
2024-02-22T14:12:38.763Z,12.93
2024-02-22T14:15:07.582Z,14.30
2024-02-22T14:17:36.048Z,10.77
2024-02-22T14:20:04.383Z,9.73
2024-02-22T14:22:32.570Z,10.98
2024-02-22T14:25:02.033Z,8.27
2024-02-22T14:27:32.807Z,12.75
2024-02-22T14:30:00.885Z,11.43
2024-02-22T14:32:29.144Z,10.05
2024-02-22T14:34:57.280Z,10.60
2024-02-22T14:37:25.366Z,13.23
2024-02-22T14:39:53.576Z,11.13
2024-02-22T14:42:23.277Z,14.32
2024-02-22T14:44:50.393Z,18.20
2024-02-22T14:47:18.572Z,12.15
2024-02-22T14:49:46.832Z,10.18
2024-02-22T14:52:14.966Z,10.50
2024-02-22T14:54:43.633Z,11.40
2024-02-22T14:57:12.337Z,13.07
2024-02-22T14:59:41.862Z,15.85
2024-02-22T15:02:09.976Z,14.98
2024-02-22T15:04:38.255Z,15.07
2024-02-22T15:07:07.737Z,11.80
2024-02-22T15:09:35.945Z,15.55
2024-02-22T15:12:04.610Z,13.52
2024-02-22T15:14:33.000Z,16.63
2024-02-22T15:17:03.526Z,18.25
2024-02-22T15:19:34.896Z,18.40
2024-02-22T15:22:04.431Z,17.17
2024-02-22T15:24:32.656Z,20.17
2024-02-22T15:27:02.065Z,15.10
2024-02-22T15:29:30.361Z,14.27
2024-02-22T15:31:58.713Z,22.42
2024-02-22T15:34:28.341Z,13.27
2024-02-22T15:36:56.909Z,13.48
2024-02-22T15:39:25.482Z,17.67
2024-02-22T15:41:53.555Z,16.15
2024-02-22T15:44:21.872Z,22.40
2024-02-22T15:46:50.187Z,20.05
2024-02-22T15:49:18.483Z,16.10
2024-02-22T15:51:48.124Z,22.88
2024-02-22T15:54:16.293Z,19.67
2024-02-22T15:56:44.361Z,30.77
2024-02-22T15:59:12.524Z,22.83
2024-02-22T16:01:41.105Z,22.48
2024-02-22T16:04:09.533Z,23.85
2024-02-22T16:06:38.490Z,26.73
2024-02-22T16:09:09.317Z,26.60
2024-02-22T16:11:37.721Z,21.00
2024-02-22T16:14:06.361Z,25.42
2024-02-22T16:16:34.526Z,25.70
2024-02-22T16:19:02.691Z,23.83
2024-02-22T16:21:30.851Z,25.50
2024-02-22T16:23:59.063Z,22.25
2024-02-22T16:26:28.684Z,34.28
2024-02-22T16:28:56.936Z,27.30
2024-02-22T16:31:25.175Z,30.42
2024-02-22T16:33:53.335Z,29.48
2024-02-22T16:36:24.133Z,29.88
2024-02-22T16:38:58.765Z,29.52
2024-02-22T16:41:35.839Z,31.67
2024-02-22T16:44:04.126Z,27.67
2024-02-22T16:46:33.262Z,32.33
2024-02-22T16:49:01.660Z,34.63
2024-02-22T16:51:29.881Z,32.45
2024-02-22T16:53:58.138Z,31.52
2024-02-22T16:56:26.364Z,32.17
2024-02-22T16:59:00.105Z,31.90
2024-02-22T17:01:28.263Z,32.25
2024-02-22T17:03:56.348Z,31.75
2024-02-22T17:06:27.724Z,30.63
2024-02-22T17:08:58.997Z,33.45
2024-02-22T17:11:27.306Z,27.50
2024-02-22T17:13:57.094Z,30.77
2024-02-22T17:16:25.313Z,33.42
2024-02-22T17:18:54.610Z,32.33
2024-02-22T17:21:24.826Z,33.85
2024-02-22T17:23:53.213Z,30.60
2024-02-22T17:26:21.707Z,36.10
2024-02-22T17:28:49.961Z,36.85
2024-02-22T17:31:19.602Z,32.22
2024-02-22T17:33:47.764Z,33.72
2024-02-22T17:36:16.236Z,42.70
2024-02-22T17:38:44.361Z,35.50
2024-02-22T17:41:13.165Z,37.33
2024-02-22T17:43:41.313Z,44.45
2024-02-22T17:46:09.436Z,39.57
2024-02-22T17:48:40.279Z,38.95
2024-02-22T17:51:08.396Z,43.80
2024-02-22T17:53:37.489Z,47.67
2024-02-22T17:56:06.510Z,43.30
2024-02-22T17:58:42.466Z,46.92
2024-02-22T18:01:16.123Z,46.60
2024-02-22T18:03:45.639Z,52.63
2024-02-22T18:06:13.841Z,42.53
2024-02-22T18:08:42.143Z,36.97
2024-02-22T18:11:10.547Z,48.10
2024-02-22T18:13:38.670Z,38.85
2024-02-22T18:16:07.765Z,37.33
2024-02-22T18:18:38.278Z,42.95
2024-02-22T18:21:08.039Z,37.70
2024-02-22T18:23:42.609Z,36.42
2024-02-22T18:26:10.843Z,38.40
2024-02-22T18:28:38.976Z,38.60
2024-02-22T18:31:08.668Z,35.95
2024-02-22T18:33:37.022Z,34.88
2024-02-22T18:36:07.027Z,42.85
2024-02-22T18:38:36.914Z,52.90
2024-02-22T18:41:07.390Z,41.65
2024-02-22T18:43:35.636Z,38.00
2024-02-22T18:46:03.940Z,48.97
2024-02-22T18:48:32.189Z,48.20
2024-02-22T18:51:00.646Z,45.25
2024-02-22T18:53:29.579Z,31.70
2024-02-22T18:56:00.583Z,31.33
2024-02-22T18:58:28.781Z,38.00
2024-02-22T19:00:56.886Z,33.70
2024-02-22T19:03:25.009Z,31.15
2024-02-22T19:05:53.259Z,27.95
2024-02-22T19:08:21.461Z,32.85
2024-02-22T19:10:49.784Z,32.88
2024-02-22T19:13:19.492Z,30.98
2024-02-22T19:15:48.576Z,26.98
2024-02-22T19:18:16.755Z,31.58
2024-02-22T19:20:46.205Z,23.38
2024-02-22T19:23:14.408Z,21.40
2024-02-22T19:25:42.575Z,19.85
2024-02-22T19:28:10.689Z,17.33
2024-02-22T19:30:40.787Z,18.50
2024-02-22T19:33:09.076Z,18.85
2024-02-22T19:35:39.398Z,18.58
2024-02-22T19:38:08.618Z,20.92
2024-02-22T19:40:36.754Z,19.17
2024-02-22T19:43:04.983Z,22.58
2024-02-22T19:45:33.570Z,17.52
2024-02-22T19:48:04.351Z,17.70
2024-02-22T19:50:33.431Z,18.10
2024-02-22T19:53:01.935Z,21.98
2024-02-22T19:55:30.233Z,17.63
2024-02-22T19:58:00.652Z,21.38
2024-02-22T20:00:29.107Z,23.73
2024-02-22T20:02:57.224Z,18.38
2024-02-22T20:05:27.057Z,23.10
2024-02-22T20:07:56.345Z,23.27
2024-02-22T20:10:24.511Z,24.70
2024-02-22T20:12:52.586Z,25.30
2024-02-22T20:15:20.951Z,22.75
2024-02-22T20:17:49.388Z,25.50
2024-02-22T20:20:17.520Z,22.10
2024-02-22T20:22:47.074Z,21.98
2024-02-22T20:25:15.154Z,22.08
2024-02-22T20:27:43.926Z,23.77
2024-02-22T20:30:13.379Z,21.80
2024-02-22T20:32:41.540Z,24.73
2024-02-22T20:35:18.633Z,29.42
2024-02-22T20:37:55.012Z,21.63
2024-02-22T20:40:23.659Z,21.10
2024-02-22T20:42:52.530Z,22.90
2024-02-22T20:45:20.994Z,21.55
2024-02-22T20:47:49.375Z,23.23
2024-02-22T20:50:18.530Z,21.85
2024-02-22T20:52:46.884Z,21.15
2024-02-22T20:55:16.462Z,30.05
2024-02-22T20:57:44.923Z,28.73
2024-02-22T21:00:14.008Z,25.38
2024-02-22T21:02:43.742Z,32.28
2024-02-22T21:05:14.897Z,27.55
2024-02-22T21:07:45.671Z,23.33
2024-02-22T21:10:16.612Z,28.48
2024-02-22T21:12:46.178Z,23.05
2024-02-22T21:15:14.292Z,23.77
2024-02-22T21:17:42.463Z,22.30
2024-02-22T21:20:12.216Z,24.00
2024-02-22T21:22:40.360Z,25.80
2024-02-22T21:25:08.804Z,25.90
2024-02-22T21:27:36.927Z,21.52
2024-02-22T21:30:07.924Z,20.45
2024-02-22T21:32:36.905Z,19.63
2024-02-22T21:35:07.747Z,22.95
2024-02-22T21:37:35.956Z,27.75
2024-02-22T21:40:06.702Z,23.80
2024-02-22T21:42:35.929Z,24.55
2024-02-22T21:45:04.072Z,22.40
2024-02-22T21:47:35.715Z,27.50
2024-02-22T21:50:04.666Z,25.00
2024-02-22T21:52:33.277Z,20.85
2024-02-22T21:55:01.609Z,25.75
2024-02-22T21:57:29.943Z,25.67
2024-02-22T21:59:58.088Z,25.77
2024-02-22T22:02:26.352Z,25.63
2024-02-22T22:04:56.206Z,24.80
2024-02-22T22:07:24.322Z,26.25
2024-02-22T22:09:52.439Z,32.08
2024-02-22T22:12:20.560Z,27.38
2024-02-22T22:14:48.858Z,31.88
2024-02-22T22:17:17.054Z,34.13
2024-02-22T22:19:45.259Z,32.78
2024-02-22T22:22:14.951Z,37.95
2024-02-22T22:24:43.030Z,30.75
2024-02-22T22:27:11.364Z,32.28
2024-02-22T22:29:39.920Z,36.25
2024-02-22T22:32:08.609Z,34.83
2024-02-22T22:34:37.397Z,35.70
2024-02-22T22:37:06.413Z,40.05
2024-02-22T22:39:35.892Z,34.95
2024-02-22T22:42:04.062Z,49.35
2024-02-22T22:44:36.478Z,41.03
2024-02-22T22:47:05.101Z,36.83
2024-02-22T22:49:33.357Z,41.40
2024-02-22T22:52:02.456Z,39.72
2024-02-22T22:54:30.608Z,39.13
2024-02-22T22:57:00.258Z,42.70
2024-02-22T22:59:28.526Z,44.10
2024-02-22T23:01:57.835Z,40.22
2024-02-22T23:04:26.333Z,33.60
2024-02-22T23:06:54.995Z,36.88
2024-02-22T23:09:24.935Z,42.35
2024-02-22T23:11:53.613Z,34.25
2024-02-22T23:14:23.348Z,40.42
2024-02-22T23:16:51.741Z,40.80
2024-02-22T23:19:19.879Z,32.38
2024-02-22T23:21:47.975Z,37.50
2024-02-22T23:24:16.030Z,36.38
2024-02-22T23:26:44.865Z,38.67
2024-02-22T23:29:13.028Z,34.10
2024-02-22T23:31:42.560Z,37.00
2024-02-22T23:34:11.947Z,33.15
2024-02-22T23:36:40.118Z,34.58
2024-02-22T23:39:08.280Z,32.50
2024-02-22T23:41:36.407Z,36.30
2024-02-22T23:44:04.681Z,33.95
2024-02-22T23:46:33.269Z,32.65
2024-02-22T23:49:04.959Z,35.05
2024-02-22T23:51:33.220Z,35.20
2024-02-22T23:54:05.842Z,36.78
2024-02-22T23:56:34.140Z,38.58
2024-02-22T23:59:02.496Z,36.13
